OOCL Kaohsiung — 9V9830 — position and weather

sailwx.info

Track history (hours):
 
Tides and Currents Weather Stations Pressure Air Temp Water Temp Dewpoint Dewpoint Depression Visibility Wind Speed Wind Dir Waves Ship Positions

OOCL Kaohsiung

Last reported at 2018-Apr-22 18:15 UTC. Time now 2018-Apr-24 21:16 UTC.
Position N 01°15' E 104°07'.

Length 280 m; draft 13.4 m.

Type: Ship. MMSI: 566389000.

Date/timePositionNaut miles runAvg speedWind from/ knotsBaromVisibWave heightAir tempDewpointWater temp
2018-Apr-22 18:15N 01°15' E 104°07'416.5
2018-Apr-22 17:59N 01°14' E 104°03'815.9
2018-Apr-22 17:30N 01°13' E 103°55'815.3
2018-Apr-22 17:00N 01°10' E 103°48'815.3
2018-Apr-22 16:30N 01°05' E 103°43'713.4
2018-Apr-22 15:59N 01°04' E 103°36'715.2
2018-Apr-22 15:30N 01°08' E 103°29'715.0
2018-Apr-22 15:01N 01°12' E 103°23'815.1
2018-Apr-22 14:30N 01°18' E 103°18'6 0.1
2018-Apr-21 00:41N 01°15' E 103°23'315.6
2018-Apr-21 00:31N 01°14' E 103°26'1016.8
2018-Apr-20 23:56N 01°12' E 103°35'716.1
2018-Apr-20 23:31N 01°10' E 103°41'713.2
2018-Apr-20 22:59N 01°11' E 103°48'4 9.3
2018-Apr-20 22:30N 01°12' E 103°52'4 7.0
2018-Apr-20 22:00N 01°16' E 103°51'0 0.8
2018-Apr-20 21:30N 01°16' E 103°50'0 0.0
2018-Apr-20 20:57N 01°16' E 103°50'0 0.0
2018-Apr-20 20:24N 01°16' E 103°50'0 0.1
2018-Apr-20 19:57N 01°16' E 103°50'0 0.0
2018-Apr-20 19:27N 01°16' E 103°50'0 0.0
2018-Apr-20 18:57N 01°16' E 103°50'0 0.0
2018-Apr-20 18:27N 01°16' E 103°50'0 0.0
2018-Apr-20 17:54N 01°16' E 103°50'0 0.0
2018-Apr-20 17:27N 01°16' E 103°50'0 0.0
2018-Apr-20 16:24N 01°16' E 103°50'0 0.0
2018-Apr-20 15:51N 01°16' E 103°50'0 0.0
2018-Apr-20 15:24N 01°16' E 103°50'0 0.0
2018-Apr-20 14:54N 01°16' E 103°50'0 0.0
2018-Apr-20 14:30N 01°16' E 103°50'0 0.0
2018-Apr-20 13:57N 01°16' E 103°50'0 0.0
2018-Apr-20 13:15N 01°16' E 103°50'0 0.0
2018-Apr-20 12:57N 01°16' E 103°50'1 1.6
2018-Apr-20 12:30N 01°15' E 103°51'3 6.2
2018-Apr-20 12:00N 01°12' E 103°51'5 9.4
2018-Apr-20 11:31N 01°14' E 103°47'2 3.9
2018-Apr-20 11:01N 01°16' E 103°47'0 0.2
2018-Apr-20 10:28N 01°16' E 103°47'0 0.0
2018-Apr-20 09:58N 01°16' E 103°47'0 0.0
2018-Apr-20 09:28N 01°16' E 103°47'0 0.0
2018-Apr-20 08:58N 01°16' E 103°47'0 0.0
2018-Apr-20 08:28N 01°16' E 103°47'0 0.0
2018-Apr-20 07:58N 01°16' E 103°47'0 0.0
2018-Apr-20 07:28N 01°16' E 103°47'0 0.0
2018-Apr-20 06:58N 01°16' E 103°47'0 0.0
2018-Apr-20 06:28N 01°16' E 103°47'0 0.0
2018-Apr-20 05:58N 01°16' E 103°47'0 0.0
2018-Apr-20 05:28N 01°16' E 103°47'0 0.0
2018-Apr-20 04:55N 01°16' E 103°47'0 0.0
2018-Apr-20 04:28N 01°16' E 103°47'0 0.0
2018-Apr-20 03:55N 01°16' E 103°47'0 0.0
2018-Apr-20 03:28N 01°16' E 103°47'0 0.0
2018-Apr-20 02:58N 01°16' E 103°47'0 0.0
2018-Apr-20 02:25N 01°16' E 103°47'0 0.0
2018-Apr-20 01:58N 01°16' E 103°47'0 0.0
2018-Apr-20 01:22N 01°16' E 103°47'0 0.0
2018-Apr-20 00:58N 01°16' E 103°47'0 0.0
2018-Apr-20 00:28N 01°16' E 103°47'0 0.0
2018-Apr-19 23:58N 01°16' E 103°47'0 0.0
2018-Apr-19 23:28N 01°16' E 103°47'0 0.0
2018-Apr-19 22:58N 01°16' E 103°47'0 0.0
2018-Apr-19 22:28N 01°16' E 103°47'0 0.0
2018-Apr-19 21:58N 01°16' E 103°47'0 0.0
2018-Apr-19 21:28N 01°16' E 103°47'0 0.0
2018-Apr-19 20:58N 01°16' E 103°47'0 0.0
2018-Apr-19 20:28N 01°16' E 103°47'0 0.0
2018-Apr-19 19:58N 01°16' E 103°47'0 0.0
2018-Apr-19 19:28N 01°16' E 103°47'0 0.0
2018-Apr-19 18:58N 01°16' E 103°47'0 0.0
2018-Apr-19 18:25N 01°16' E 103°47'0 0.0
2018-Apr-19 17:58N 01°16' E 103°47'0 0.0
2018-Apr-19 17:28N 01°16' E 103°47'0 0.0
2018-Apr-19 16:55N 01°16' E 103°47'0 0.0
2018-Apr-19 16:28N 01°16' E 103°47'0 0.0
2018-Apr-19 15:58N 01°16' E 103°47'0 0.0
2018-Apr-19 15:28N 01°16' E 103°47'0 0.0
2018-Apr-19 14:58N 01°16' E 103°47'0 0.0
2018-Apr-19 14:28N 01°16' E 103°47'0 0.3
2018-Apr-19 14:00N 01°16' E 103°47'1 2.8
2018-Apr-19 13:30N 01°15' E 103°47'4 8.7
2018-Apr-19 13:00N 01°12' E 103°50'4 8.6
2018-Apr-19 12:30N 01°14' E 103°54'2 4.5
2018-Apr-19 12:00N 01°14' E 103°56'  
Track history (hours):
 
Tides and Currents Weather Stations Pressure Air Temp Water Temp Dewpoint Dewpoint Depression Visibility Wind Speed Wind Dir Waves Ship Positions

OOCL Kaohsiung

Last reported at 2018-Apr-22 18:15 UTC. Time now 2018-Apr-24 21:16 UTC.
Position N 01°15' E 104°07'.

Length 280 m; draft 13.4 m.

Type: Ship. MMSI: 566389000.

Date/timePositionNaut miles runAvg speedWind from/ knotsBaromVisibWave heightAir tempDewpointWater temp
2018-Apr-22 18:15N 01°15' E 104°07'416.5
2018-Apr-22 17:59N 01°14' E 104°03'815.9
2018-Apr-22 17:30N 01°13' E 103°55'815.3
2018-Apr-22 17:00N 01°10' E 103°48'815.3
2018-Apr-22 16:30N 01°05' E 103°43'713.4
2018-Apr-22 15:59N 01°04' E 103°36'715.2
2018-Apr-22 15:30N 01°08' E 103°29'715.0
2018-Apr-22 15:01N 01°12' E 103°23'815.1
2018-Apr-22 14:30N 01°18' E 103°18'6 0.1
2018-Apr-21 00:41N 01°15' E 103°23'315.6
2018-Apr-21 00:31N 01°14' E 103°26'1016.8
2018-Apr-20 23:56N 01°12' E 103°35'716.1
2018-Apr-20 23:31N 01°10' E 103°41'713.2
2018-Apr-20 22:59N 01°11' E 103°48'4 9.3
2018-Apr-20 22:30N 01°12' E 103°52'4 7.0
2018-Apr-20 22:00N 01°16' E 103°51'0 0.8
2018-Apr-20 21:30N 01°16' E 103°50'0 0.0
2018-Apr-20 20:57N 01°16' E 103°50'0 0.0
2018-Apr-20 20:24N 01°16' E 103°50'0 0.1
2018-Apr-20 19:57N 01°16' E 103°50'0 0.0
2018-Apr-20 19:27N 01°16' E 103°50'0 0.0
2018-Apr-20 18:57N 01°16' E 103°50'0 0.0
2018-Apr-20 18:27N 01°16' E 103°50'0 0.0
2018-Apr-20 17:54N 01°16' E 103°50'0 0.0
2018-Apr-20 17:27N 01°16' E 103°50'0 0.0
2018-Apr-20 16:24N 01°16' E 103°50'0 0.0
2018-Apr-20 15:51N 01°16' E 103°50'0 0.0
2018-Apr-20 15:24N 01°16' E 103°50'0 0.0
2018-Apr-20 14:54N 01°16' E 103°50'0 0.0
2018-Apr-20 14:30N 01°16' E 103°50'0 0.0
2018-Apr-20 13:57N 01°16' E 103°50'0 0.0
2018-Apr-20 13:15N 01°16' E 103°50'0 0.0
2018-Apr-20 12:57N 01°16' E 103°50'1 1.6
2018-Apr-20 12:30N 01°15' E 103°51'3 6.2
2018-Apr-20 12:00N 01°12' E 103°51'5 9.4
2018-Apr-20 11:31N 01°14' E 103°47'2 3.9
2018-Apr-20 11:01N 01°16' E 103°47'0 0.2
2018-Apr-20 10:28N 01°16' E 103°47'0 0.0
2018-Apr-20 09:58N 01°16' E 103°47'0 0.0
2018-Apr-20 09:28N 01°16' E 103°47'0 0.0
2018-Apr-20 08:58N 01°16' E 103°47'0 0.0
2018-Apr-20 08:28N 01°16' E 103°47'0 0.0
2018-Apr-20 07:58N 01°16' E 103°47'0 0.0
2018-Apr-20 07:28N 01°16' E 103°47'0 0.0
2018-Apr-20 06:58N 01°16' E 103°47'0 0.0
2018-Apr-20 06:28N 01°16' E 103°47'0 0.0
2018-Apr-20 05:58N 01°16' E 103°47'0 0.0
2018-Apr-20 05:28N 01°16' E 103°47'0 0.0
2018-Apr-20 04:55N 01°16' E 103°47'0 0.0
2018-Apr-20 04:28N 01°16' E 103°47'0 0.0
2018-Apr-20 03:55N 01°16' E 103°47'0 0.0
2018-Apr-20 03:28N 01°16' E 103°47'0 0.0
2018-Apr-20 02:58N 01°16' E 103°47'0 0.0
2018-Apr-20 02:25N 01°16' E 103°47'0 0.0
2018-Apr-20 01:58N 01°16' E 103°47'0 0.0
2018-Apr-20 01:22N 01°16' E 103°47'0 0.0
2018-Apr-20 00:58N 01°16' E 103°47'0 0.0
2018-Apr-20 00:28N 01°16' E 103°47'0 0.0
2018-Apr-19 23:58N 01°16' E 103°47'0 0.0
2018-Apr-19 23:28N 01°16' E 103°47'0 0.0
2018-Apr-19 22:58N 01°16' E 103°47'0 0.0
2018-Apr-19 22:28N 01°16' E 103°47'0 0.0
2018-Apr-19 21:58N 01°16' E 103°47'0 0.0
2018-Apr-19 21:28N 01°16' E 103°47'0 0.0
2018-Apr-19 20:58N 01°16' E 103°47'0 0.0
2018-Apr-19 20:28N 01°16' E 103°47'0 0.0
2018-Apr-19 19:58N 01°16' E 103°47'0 0.0
2018-Apr-19 19:28N 01°16' E 103°47'0 0.0
2018-Apr-19 18:58N 01°16' E 103°47'0 0.0
2018-Apr-19 18:25N 01°16' E 103°47'0 0.0
2018-Apr-19 17:58N 01°16' E 103°47'0 0.0
2018-Apr-19 17:28N 01°16' E 103°47'0 0.0
2018-Apr-19 16:55N 01°16' E 103°47'0 0.0
2018-Apr-19 16:28N 01°16' E 103°47'0 0.0
2018-Apr-19 15:58N 01°16' E 103°47'0 0.0
2018-Apr-19 15:28N 01°16' E 103°47'0 0.0
2018-Apr-19 14:58N 01°16' E 103°47'0 0.0
2018-Apr-19 14:28N 01°16' E 103°47'0 0.3
2018-Apr-19 14:00N 01°16' E 103°47'1 2.8
2018-Apr-19 13:30N 01°15' E 103°47'4 8.7
2018-Apr-19 13:00N 01°12' E 103°50'4 8.6
2018-Apr-19 12:30N 01°14' E 103°54'2 4.5
2018-Apr-19 12:00N 01°14' E 103°56'  

Dump ship's entire track history